Time;durP1;ratioP1;P1;durP2;ratioP2;P2;SDS_P1;SDS_P2;PMS_P1;PMS_P2;Temp;Humidity;BMP_temperature;BMP_pressure;BME280_temperature;BME280_humidity;BME280_pressure;Samples;Min_cycle;Max_cycle;Signal;HPM_P1;HPM_P2
2022/06/22 00:02:30;;;;;;;1.37;0.93;;;;;;;16.03;58.02;97964.48;1714741;83;21075;-67
2022/06/22 00:05:02;;;;;;;2.02;0.70;;;;;;;16.02;57.99;97960.91;1711586;81;21249;-66
2022/06/22 00:07:41;;;;;;;2.37;0.93;;;;;;;16.01;57.54;97955.74;1709825;83;21066;-66
2022/06/22 00:10:24;;;;;;;3.30;0.70;;;;;;;15.95;57.15;97951.14;1711394;83;21068;-66
2022/06/22 00:12:53;;;;;;;0.85;0.65;;;;;;;15.88;57.33;97935.26;1673179;83;21036;-66
2022/06/22 00:15:42;;;;;;;0.80;0.60;;;;;;;15.86;57.75;97934.08;1713415;82;21028;-66
2022/06/22 00:18:34;;;;;;;3.02;0.60;;;;;;;15.84;57.70;97930.89;1687121;83;21435;-66
2022/06/22 00:21:23;;;;;;;6.20;0.80;;;;;;;15.81;57.58;97922.77;1715927;83;21057;-67
2022/06/22 00:23:53;;;;;;;1.47;0.60;;;;;;;15.77;57.94;97917.80;1715334;83;21096;-66
2022/06/22 00:26:28;;;;;;;1.02;0.70;;;;;;;15.74;58.17;97910.27;1689781;83;21064;-66
2022/06/22 00:29:17;;;;;;;0.98;0.75;;;;;;;15.70;58.28;97913.83;1715589;83;21029;-66
2022/06/22 00:31:58;;;;;;;5.42;0.65;;;;;;;15.66;58.60;97903.92;1714363;83;22157;-66
2022/06/22 00:34:30;;;;;;;1.45;0.60;;;;;;;15.65;58.56;97901.73;1714797;83;21084;-66
2022/06/22 00:37:18;;;;;;;2.53;0.60;;;;;;;15.61;59.06;97904.30;1713051;83;21009;-66
2022/06/22 00:39:48;;;;;;;0.95;0.50;;;;;;;15.61;59.26;97900.91;1714809;83;21312;-66
2022/06/22 00:42:41;;;;;;;3.70;0.70;;;;;;;15.61;58.99;97902.30;1712848;83;21064;-66
2022/06/22 00:45:15;;;;;;;3.17;0.70;;;;;;;15.58;59.18;97896.95;1715811;83;21352;-66
2022/06/22 00:47:58;;;;;;;2.77;0.60;;;;;;;15.58;59.55;97898.93;1712882;83;21028;-65
2022/06/22 00:50:46;;;;;;;1.42;0.70;;;;;;;15.56;59.71;97895.75;1714779;83;21033;-66
2022/06/22 00:53:39;;;;;;;3.27;0.50;;;;;;;15.55;59.94;97887.23;1707082;83;21032;-66
2022/06/22 00:56:43;;;;;;;2.27;0.70;;;;;;;15.56;60.07;97886.84;1707901;83;21648;-66
2022/06/22 00:59:46;;;;;;;0.47;0.40;;;;;;;15.54;60.12;97883.66;1716350;83;21166;-66
2022/06/22 01:02:45;;;;;;;1.17;0.70;;;;;;;15.51;60.06;97883.06;1716376;83;21089;-67
2022/06/22 01:05:24;;;;;;;0.88;0.65;;;;;;;15.47;60.21;97875.33;1675510;83;21040;-66
2022/06/22 01:07:59;;;;;;;1.80;0.47;;;;;;;15.44;60.35;97871.34;1715573;83;21535;-66
2022/06/22 01:10:36;;;;;;;1.05;0.50;;;;;;;15.41;60.48;97876.89;1710987;83;21080;-66
2022/06/22 01:13:21;;;;;;;1.47;0.60;;;;;;;15.38;60.77;97873.52;1713761;83;21853;-66
2022/06/22 01:15:59;;;;;;;2.10;0.60;;;;;;;15.35;60.97;97870.14;1717385;83;21844;-66
2022/06/22 01:18:29;;;;;;;2.20;0.53;;;;;;;15.30;61.15;97865.16;1714712;83;21060;-64
2022/06/22 01:21:16;;;;;;;2.77;0.50;;;;;;;15.29;61.32;97863.59;1711257;83;21051;-65
2022/06/22 01:24:07;;;;;;;13.13;0.80;;;;;;;15.28;61.44;97859.23;1715133;83;21582;-66
2022/06/22 01:26:49;;;;;;;2.87;0.65;;;;;;;15.23;61.76;97851.88;1709918;83;21273;-65
2022/06/22 01:29:22;;;;;;;1.35;0.53;;;;;;;15.19;61.95;97852.67;1713666;83;21526;-65
2022/06/22 01:32:12;;;;;;;2.45;0.40;;;;;;;15.15;62.10;97848.31;1718299;83;21060;-66
2022/06/22 01:34:41;;;;;;;5.40;0.82;;;;;;;15.12;62.30;97843.52;1709931;83;21064;-66
2022/06/22 01:37:24;;;;;;;2.52;0.50;;;;;;;15.08;62.40;97847.70;1715369;83;21036;-66
2022/06/22 01:40:18;;;;;;;3.90;0.40;;;;;;;15.04;62.67;97842.13;1718055;83;21099;-66
2022/06/22 01:43:02;;;;;;;2.10;0.85;;;;;;;15.02;62.99;97844.50;1713644;83;21533;-65
2022/06/22 01:45:39;;;;;;;0.40;0.40;;;;;;;15.01;63.22;97842.12;1707587;83;21494;-66
2022/06/22 01:48:32;;;;;;;1.20;0.65;;;;;;;15.00;63.48;97842.70;1715208;83;21656;-66
2022/06/22 01:51:19;;;;;;;2.85;0.53;;;;;;;15.03;63.51;97837.75;1712831;83;21108;-66
2022/06/22 01:54:05;;;;;;;1.57;0.40;;;;;;;15.06;63.51;97845.28;1700069;83;21618;-65
2022/06/22 01:56:46;;;;;;;1.00;0.40;;;;;;;15.08;63.48;97841.53;1697262;84;21060;-66
2022/06/22 01:59:45;;;;;;;1.15;0.42;;;;;;;15.12;63.44;97842.13;1696234;84;21116;-66
2022/06/22 02:02:19;;;;;;;3.25;0.55;;;;;;;15.14;63.55;97838.38;1699541;83;21561;-66
2022/06/22 02:05:07;;;;;;;1.00;0.47;;;;;;;15.13;63.48;97836.80;1688991;84;21067;-66
2022/06/22 02:07:47;;;;;;;4.15;0.50;;;;;;;15.11;63.59;97842.75;1702540;82;21092;-66
2022/06/22 02:10:28;;;;;;;0.75;0.50;;;;;;;15.09;63.90;97843.14;1703129;83;21107;-67
2022/06/22 02:13:28;;;;;;;1.07;0.50;;;;;;;15.11;63.95;97840.55;1696613;84;21030;-66
2022/06/22 02:16:14;;;;;;;2.15;0.62;;;;;;;15.11;64.19;97840.55;1695698;83;21078;-66
2022/06/22 02:18:50;;;;;;;0.45;0.40;;;;;;;15.15;64.17;97846.31;1689048;84;21046;-66
2022/06/22 02:21:23;;;;;;;2.30;0.30;;;;;;;15.21;64.12;97837.83;1682365;83;21327;-66
2022/06/22 02:24:00;;;;;;;4.10;0.55;;;;;;;15.21;64.08;97843.37;1659569;84;21026;-66
2022/06/22 02:26:35;;;;;;;1.55;0.62;;;;;;;15.20;64.05;97838.99;1692351;83;21503;-66
2022/06/22 02:29:01;;;;;;;6.40;0.90;;;;;;;15.17;64.35;97837.59;1670199;84;21100;-67
2022/06/22 02:31:28;;;;;;;1.55;0.55;;;;;;;15.18;64.57;97837.81;1675048;84;21128;-66
2022/06/22 02:33:57;;;;;;;2.00;0.50;;;;;;;15.20;64.69;97836.22;1689228;83;21234;-67
2022/06/22 02:36:25;;;;;;;2.05;0.57;;;;;;;15.25;64.77;97832.88;1649061;84;21022;-68
2022/06/22 02:38:51;;;;;;;0.85;0.60;;;;;;;15.27;64.77;97831.89;1663729;84;21058;-67
2022/06/22 02:46:55;;;;;;;0.82;0.50;;;;;;;15.30;64.56;97834.65;1690922;83;21603;-68
2022/06/22 02:49:30;;;;;;;3.15;0.30;;;;;;;15.23;64.84;97841.59;1682149;84;21109;-67
2022/06/22 02:51:56;;;;;;;1.85;0.47;;;;;;;15.18;64.99;97836.42;1666734;84;21089;-67
2022/06/22 02:54:43;;;;;;;0.60;0.53;;;;;;;15.12;65.38;97841.55;1676301;83;21474;-67
2022/06/22 02:57:25;;;;;;;0.80;0.50;;;;;;;15.06;65.50;97841.73;1701551;83;21044;-67
2022/06/22 02:59:52;;;;;;;0.65;0.40;;;;;;;15.03;65.92;97837.75;1681418;83;21521;-67
2022/06/22 03:02:21;;;;;;;4.10;0.60;;;;;;;15.06;66.22;97845.28;1698465;83;21036;-67
2022/06/22 03:04:47;;;;;;;3.65;0.78;;;;;;;15.13;66.33;97833.41;1683260;82;21537;-68
2022/06/22 03:07:14;;;;;;;0.98;0.40;;;;;;;15.21;66.17;97836.44;1698485;83;21094;-67
2022/06/22 03:09:48;;;;;;;0.70;0.50;;;;;;;15.27;66.09;97832.66;1679335;83;21021;-67
2022/06/22 03:12:14;;;;;;;2.55;0.68;;;;;;;15.31;65.90;97829.91;1698774;83;21426;-67
2022/06/22 03:15:01;;;;;;;1.95;0.57;;;;;;;15.32;66.00;97833.67;1680054;83;20984;-66
2022/06/22 03:17:38;;;;;;;0.95;0.60;;;;;;;15.37;65.83;97835.25;1709809;82;21056;-66
2022/06/22 03:20:11;;;;;;;0.80;0.60;;;;;;;15.42;65.92;97834.09;1691631;83;20998;-65
2022/06/22 03:22:44;;;;;;;0.72;0.50;;;;;;;15.42;65.58;97830.70;1688114;83;21869;-66
2022/06/22 03:25:19;;;;;;;1.30;0.37;;;;;;;15.38;65.98;97829.92;1721123;82;21722;-66
2022/06/22 03:27:53;;;;;;;1.17;0.42;;;;;;;15.35;65.70;97835.46;1720952;82;21003;-66
2022/06/22 03:30:23;;;;;;;3.12;0.75;;;;;;;15.16;65.93;97824.34;1718222;82;21080;-66
2022/06/22 03:33:01;;;;;;;0.62;0.60;;;;;;;15.12;66.54;97835.20;1700705;84;21087;-66
2022/06/22 03:35:32;;;;;;;1.35;0.50;;;;;;;15.14;66.91;97835.61;1700972;84;21017;-67
2022/06/22 03:38:07;;;;;;;4.42;0.60;;;;;;;15.22;66.79;97837.21;1696928;84;21116;-65
2022/06/22 03:41:02;;;;;;;1.50;0.50;;;;;;;15.27;66.79;97843.77;1695527;84;21012;-65
2022/06/22 03:43:49;;;;;;;1.60;0.60;;;;;;;15.34;66.75;97837.44;1698922;84;20980;-65
2022/06/22 03:46:40;;;;;;;1.07;0.50;;;;;;;15.38;66.51;97838.83;1699451;83;21084;-66
2022/06/22 03:49:26;;;;;;;0.68;0.50;;;;;;;15.44;66.47;97842.21;1679167;84;21008;-66
2022/06/22 03:52:13;;;;;;;1.12;0.55;;;;;;;15.52;66.29;97843.62;1703134;83;21760;-67
2022/06/22 03:54:58;;;;;;;1.00;0.57;;;;;;;15.58;66.25;97847.58;1685430;84;21072;-66
2022/06/22 03:57:27;;;;;;;0.82;0.50;;;;;;;15.56;65.74;97843.02;1670113;85;21674;-65
2022/06/22 03:59:53;;;;;;;0.85;0.55;;;;;;;15.47;66.09;97847.58;1672003;85;21112;-67
2022/06/22 04:02:20;;;;;;;1.85;0.50;;;;;;;15.45;66.37;97851.34;1686491;85;21048;-65
2022/06/22 04:04:51;;;;;;;1.35;0.50;;;;;;;15.43;66.14;97845.38;1673219;85;21823;-66
2022/06/22 04:07:19;;;;;;;2.30;1.17;;;;;;;15.43;66.51;97839.84;1685602;84;20965;-66
2022/06/22 04:09:53;;;;;;;1.10;0.55;;;;;;;15.42;66.23;97845.20;1688169;84;21083;-66
2022/06/22 04:12:32;;;;;;;0.40;0.40;;;;;;;15.41;66.62;97845.78;1681465;84;21021;-66
2022/06/22 04:15:32;;;;;;;1.25;0.75;;;;;;;15.39;66.69;97849.53;1654081;85;21538;-67
2022/06/22 04:18:13;;;;;;;5.33;1.42;;;;;;;15.39;66.83;97847.34;1684434;85;21194;-67
2022/06/22 04:20:56;;;;;;;1.15;0.70;;;;;;;15.27;66.93;97853.47;1685181;84;21604;-67
2022/06/22 04:23:42;;;;;;;5.50;0.60;;;;;;;15.24;67.20;97845.94;1685311;85;21123;-66
2022/06/22 04:26:27;;;;;;;0.70;0.70;;;;;;;15.25;67.07;97848.12;1686961;84;21077;-66
2022/06/22 04:29:07;;;;;;;1.60;0.70;;;;;;;15.24;67.51;97849.30;1687154;85;21056;-66
2022/06/22 04:31:36;;;;;;;1.80;0.57;;;;;;;15.25;67.52;97853.06;1688160;85;21751;-66
2022/06/22 04:34:07;;;;;;;1.87;0.53;;;;;;;15.31;67.38;97852.91;1689137;84;21041;-67
2022/06/22 04:36:45;;;;;;;1.27;0.60;;;;;;;15.31;67.42;97852.91;1687681;84;21005;-66
2022/06/22 04:39:18;;;;;;;0.60;0.60;;;;;;;15.32;67.31;97853.09;1673431;85;21012;-66
2022/06/22 04:41:44;;;;;;;1.42;0.60;;;;;;;15.36;67.50;97859.23;1687123;84;21073;-67
2022/06/22 04:44:25;;;;;;;2.67;0.70;;;;;;;15.39;67.29;97858.45;1688036;84;21169;-67
2022/06/22 04:46:53;;;;;;;1.80;0.57;;;;;;;15.41;67.32;97858.85;1688229;84;21613;-66
2022/06/22 04:49:29;;;;;;;1.67;0.70;;;;;;;15.38;67.34;97870.16;1684908;84;21052;-67
2022/06/22 04:52:17;;;;;;;0.50;0.50;;;;;;;15.30;67.17;97872.10;1674018;85;21545;-66
2022/06/22 04:54:44;;;;;;;1.92;0.85;;;;;;;15.23;66.81;97875.46;1695701;84;21117;-66
2022/06/22 04:57:24;;;;;;;0.70;0.70;;;;;;;15.11;66.29;97875.23;1696095;84;21090;-66
2022/06/22 04:59:53;;;;;;;2.92;0.60;;;;;;;14.95;66.53;97879.93;1709470;83;21059;-66
2022/06/22 05:02:21;;;;;;;4.97;1.22;;;;;;;14.90;66.90;97878.91;1700177;83;21064;-66
2022/06/22 05:04:54;;;;;;;1.62;0.70;;;;;;;14.89;67.74;97880.11;1695653;84;21051;-66
2022/06/22 05:07:47;;;;;;;1.45;0.60;;;;;;;14.98;68.07;97884.50;1706547;83;21044;-66
2022/06/22 05:10:38;;;;;;;1.98;1.47;;;;;;;15.11;67.98;97883.55;1702162;83;21091;-67
2022/06/22 05:13:09;;;;;;;0.93;0.70;;;;;;;15.24;67.89;97882.00;1701374;83;21060;-66
2022/06/22 05:15:38;;;;;;;1.42;0.60;;;;;;;15.26;67.32;97879.64;1675231;84;21099;-65
2022/06/22 05:18:15;;;;;;;1.45;0.62;;;;;;;15.30;67.60;97872.10;1700681;84;21513;-66
2022/06/22 05:20:53;;;;;;;3.10;0.80;;;;;;;15.42;67.53;97866.78;1684862;83;21020;-67
2022/06/22 05:23:23;;;;;;;2.72;0.90;;;;;;;15.51;66.52;97872.54;1693180;84;21343;-66
2022/06/22 05:25:51;;;;;;;0.50;0.50;;;;;;;15.52;67.06;97875.53;1695821;84;21060;-65
2022/06/22 05:28:39;;;;;;;1.52;0.60;;;;;;;15.56;66.44;97878.51;1649208;84;21068;-65
2022/06/22 05:31:11;;;;;;;1.32;0.62;;;;;;;15.53;66.06;97880.69;1708025;83;21119;-65
2022/06/22 05:33:39;;;;;;;2.00;0.68;;;;;;;15.47;66.00;97873.14;1700033;82;21083;-66
2022/06/22 05:36:10;;;;;;;1.00;0.60;;;;;;;15.43;66.02;97871.75;1695720;84;21112;-66
2022/06/22 05:38:41;;;;;;;0.70;0.55;;;;;;;15.42;66.33;97871.55;1709405;83;21088;-65
2022/06/22 05:41:08;;;;;;;1.15;0.70;;;;;;;15.46;66.59;97869.56;1702303;83;21497;-66
2022/06/22 05:43:36;;;;;;;0.62;0.55;;;;;;;15.47;66.74;97872.56;1711232;83;21055;-67
2022/06/22 05:46:06;;;;;;;0.95;0.93;;;;;;;15.40;66.38;97878.09;1702915;83;21012;-67
2022/06/22 05:48:37;;;;;;;2.20;0.98;;;;;;;15.36;67.43;97873.11;1673673;85;21903;-66
2022/06/22 05:51:08;;;;;;;1.67;0.90;;;;;;;15.41;67.41;97867.17;1700488;83;21012;-66
2022/06/22 05:54:14;;;;;;;1.75;0.85;;;;;;;15.45;67.04;97870.77;1704770;83;21163;-66
2022/06/22 05:57:16;;;;;;;3.80;0.80;;;;;;;15.52;67.15;97869.40;1702387;83;21556;-64
2022/06/22 05:59:48;;;;;;;1.17;0.80;;;;;;;15.73;67.15;97866.42;1701641;83;21060;-66
2022/06/22 06:02:36;;;;;;;1.65;0.68;;;;;;;15.98;66.22;97871.80;1699806;83;22010;-66
2022/06/22 06:05:17;;;;;;;2.45;0.70;;;;;;;16.09;66.18;97874.00;1660257;83;21046;-67
2022/06/22 06:07:53;;;;;;;3.25;0.98;;;;;;;16.09;64.70;97870.45;1690244;83;21071;-66
2022/06/22 06:10:32;;;;;;;2.83;0.70;;;;;;;15.99;64.58;97876.98;1686016;84;21068;-67
2022/06/22 06:13:07;;;;;;;4.92;0.85;;;;;;;15.90;64.44;97880.13;1709454;83;21074;-67
2022/06/22 06:15:37;;;;;;;1.37;0.88;;;;;;;15.84;64.28;97886.47;1680833;83;21332;-67
2022/06/22 06:18:09;;;;;;;1.32;0.80;;;;;;;15.65;63.88;97883.69;1688652;84;21100;-68
2022/06/22 06:20:45;;;;;;;1.00;0.70;;;;;;;15.52;64.96;97888.83;1663878;84;21059;-67
2022/06/22 06:23:20;;;;;;;1.67;0.90;;;;;;;15.43;65.51;97891.97;1662755;83;21037;-66
2022/06/22 06:28:40;;;;;;;1.45;1.00;;;;;;;15.40;66.86;97896.13;1681238;83;21294;-66
2022/06/22 06:31:22;;;;;;;6.45;0.62;;;;;;;15.38;66.84;97892.36;1687901;83;21100;-67
2022/06/22 06:33:50;;;;;;;3.00;0.55;;;;;;;15.36;66.27;97893.92;1688909;84;21064;-67
2022/06/22 06:36:27;;;;;;;1.27;0.62;;;;;;;15.42;66.24;97887.59;1688133;84;21123;-66
2022/06/22 06:39:02;;;;;;;4.03;0.80;;;;;;;15.49;66.24;97886.81;1688591;84;21040;-66
2022/06/22 06:41:36;;;;;;;2.52;0.75;;;;;;;15.53;66.77;97890.98;1681098;83;21100;-67
2022/06/22 06:44:07;;;;;;;1.60;0.90;;;;;;;15.58;66.96;97890.60;1685656;84;21057;-66
2022/06/22 06:46:41;;;;;;;1.10;1.00;;;;;;;15.61;67.12;97898.75;1658178;84;21083;-66
2022/06/22 06:49:28;;;;;;;1.05;0.60;;;;;;;15.63;67.22;97894.38;1687089;84;21064;-67
2022/06/22 06:52:01;;;;;;;1.77;0.80;;;;;;;15.69;67.38;97904.52;1682415;84;21123;-66
2022/06/22 06:54:39;;;;;;;2.22;1.00;;;;;;;15.78;67.28;97899.35;1674670;83;21217;-67
2022/06/22 06:57:11;;;;;;;2.50;1.20;;;;;;;15.85;66.86;97913.84;1671745;84;21504;-66
2022/06/22 06:59:39;;;;;;;2.45;1.10;;;;;;;15.87;66.88;97909.27;1689686;83;21075;-66
2022/06/22 07:02:20;;;;;;;3.33;0.93;;;;;;;15.95;66.97;97915.03;1692686;83;21037;-67
2022/06/22 07:04:46;;;;;;;1.82;0.72;;;;;;;16.10;66.71;97908.94;1677997;84;21473;-67
2022/06/22 07:07:27;;;;;;;1.50;1.10;;;;;;;16.16;65.81;97910.70;1692368;84;21122;-66
2022/06/22 07:09:55;;;;;;;1.60;0.65;;;;;;;16.15;66.07;97911.91;1670229;84;21684;-66
2022/06/22 07:12:30;;;;;;;1.62;1.10;;;;;;;16.17;66.34;97913.09;1694857;84;21527;-65
2022/06/22 07:14:59;;;;;;;3.58;0.80;;;;;;;16.25;66.03;97911.70;1689454;84;21235;-64
2022/06/22 07:17:27;;;;;;;2.70;1.00;;;;;;;16.33;64.81;97911.89;1655571;85;21099;-65
2022/06/22 07:20:21;;;;;;;1.45;0.62;;;;;;;16.35;64.33;97917.05;1653166;83;21520;-65
2022/06/22 07:22:52;;;;;;;;;;;;;;;16.27;63.79;97912.10;1696505;83;21111;-67
2022/06/22 07:25:33;;;;;;;0.93;0.75;;;;;;;16.23;62.79;97918.25;1695657;83;20199;-65
2022/06/22 07:28:17;;;;;;;3.27;0.60;;;;;;;16.18;63.50;97913.89;1693618;83;21041;-64
2022/06/22 07:30:54;;;;;;;1.25;1.00;;;;;;;16.17;63.61;97915.86;1693466;83;21123;-65
2022/06/22 07:33:35;;;;;;;4.95;0.93;;;;;;;16.23;63.27;97914.08;1695362;83;21188;-65
2022/06/22 07:36:22;;;;;;;0.80;0.70;;;;;;;16.29;63.64;97904.94;1692241;83;21068;-65
2022/06/22 07:38:58;;;;;;;1.35;0.60;;;;;;;16.35;62.93;97908.12;1683815;84;21093;-65
2022/06/22 07:41:25;;;;;;;1.55;0.90;;;;;;;16.35;62.02;97910.90;1677736;83;21131;-65
2022/06/22 07:43:55;;;;;;;4.83;0.80;;;;;;;16.30;60.25;97912.11;1688975;83;21079;-65
2022/06/22 07:46:39;;;;;;;2.17;1.00;;;;;;;16.15;60.32;97925.80;1695629;83;21517;-66
2022/06/22 07:49:11;;;;;;;1.77;0.80;;;;;;;16.06;61.37;97926.19;1694078;84;21044;-66
2022/06/22 07:51:50;;;;;;;1.25;0.90;;;;;;;16.09;61.27;97923.23;1679652;84;21083;-66
2022/06/22 07:54:29;;;;;;;1.65;0.80;;;;;;;16.20;61.94;97925.98;1694508;83;21024;-66
2022/06/22 07:57:26;;;;;;;1.67;0.78;;;;;;;16.35;61.26;97924.00;1682912;84;21059;-65
2022/06/22 08:00:08;;;;;;;1.72;1.00;;;;;;;16.50;61.41;97924.18;1685245;84;21249;-66
2022/06/22 08:03:17;;;;;;;6.53;0.98;;;;;;;16.70;61.25;97932.08;1671411;84;21123;-67
2022/06/22 08:05:44;;;;;;;5.33;1.00;;;;;;;16.91;60.77;97931.24;1676943;84;21059;-66
2022/06/22 08:08:22;;;;;;;0.93;0.70;;;;;;;17.07;59.72;97934.18;1644320;84;21076;-66
2022/06/22 08:10:54;;;;;;;4.17;1.00;;;;;;;17.13;59.52;97935.95;1677726;84;21098;-66
2022/06/22 08:13:27;;;;;;;1.17;0.85;;;;;;;17.23;59.72;97930.18;1684578;84;21490;-67
2022/06/22 08:16:15;;;;;;;2.75;0.98;;;;;;;17.33;60.15;97932.72;1696033;83;21043;-67
2022/06/22 08:18:48;;;;;;;6.80;1.20;;;;;;;17.45;60.30;97935.02;1675915;83;21080;-67
2022/06/22 08:21:20;;;;;;;1.27;0.82;;;;;;;17.48;58.02;97937.02;1662659;84;21028;-67
2022/06/22 08:23:46;;;;;;;2.65;0.95;;;;;;;17.51;59.97;97933.42;1689477;83;21068;-67
2022/06/22 08:26:27;;;;;;;1.17;1.05;;;;;;;17.72;59.94;97930.91;1666972;83;22238;-66
2022/06/22 08:28:54;;;;;;;0.98;0.70;;;;;;;17.69;56.48;97931.11;1675303;84;21020;-66
2022/06/22 08:31:21;;;;;;;3.00;0.90;;;;;;;17.50;58.04;97926.86;1678037;84;21143;-67
2022/06/22 08:33:53;;;;;;;0.78;0.68;;;;;;;17.67;59.55;97932.14;1682645;83;21501;-67
2022/06/22 08:36:48;;;;;;;3.37;0.93;;;;;;;17.93;59.60;97930.58;1689801;85;21065;-67
2022/06/22 08:39:43;;;;;;;1.05;0.90;;;;;;;18.01;57.46;97934.89;1688965;85;21957;-66
2022/06/22 08:42:23;;;;;;;1.70;1.00;;;;;;;18.04;57.46;97936.86;1689279;85;21631;-64
2022/06/22 08:45:17;;;;;;;1.22;1.00;;;;;;;18.12;55.81;97933.41;1686445;85;21529;-66
2022/06/22 08:48:20;;;;;;;2.17;0.88;;;;;;;18.18;57.63;97944.36;1689431;84;21512;-66
2022/06/22 08:50:55;;;;;;;4.62;1.10;;;;;;;18.28;56.89;97942.67;1689056;83;21075;-68
2022/06/22 08:53:54;;;;;;;0.78;0.70;;;;;;;18.55;58.34;97940.64;1677850;83;21025;-68
2022/06/22 08:56:36;;;;;;;1.05;0.65;;;;;;;18.76;56.51;97938.05;1642251;86;21107;-67
2022/06/22 08:59:34;;;;;;;2.80;0.68;;;;;;;18.71;55.52;97949.83;1652225;86;21048;-65
2022/06/22 09:02:14;;;;;;;1.55;0.75;;;;;;;18.63;55.53;97946.93;1683318;83;21658;-67
2022/06/22 09:05:16;;;;;;;1.77;0.70;;;;;;;18.66;53.63;97950.31;1681843;85;21029;-66
2022/06/22 09:08:02;;;;;;;2.08;0.90;;;;;;;18.63;53.73;97951.73;1682314;85;21206;-66
2022/06/22 09:10:48;;;;;;;1.02;0.57;;;;;;;18.72;54.58;97942.27;1679669;85;21021;-65
2022/06/22 09:13:57;;;;;;;1.35;0.50;;;;;;;18.91;51.07;97948.45;1680599;85;21068;-66
2022/06/22 09:16:59;;;;;;;4.55;0.62;;;;;;;19.02;50.29;97944.16;1680882;85;21093;-66
2022/06/22 09:20:00;;;;;;;0.70;0.70;;;;;;;19.12;50.73;97947.46;1682914;83;21021;-66
2022/06/22 09:22:59;;;;;;;3.98;0.75;;;;;;;19.39;52.39;97959.30;1682932;85;21092;-67
2022/06/22 09:25:34;;;;;;;1.32;0.50;;;;;;;19.43;52.55;97960.65;1682326;85;21037;-66
2022/06/22 09:28:10;;;;;;;1.35;1.05;;;;;;;19.37;52.77;97958.12;1682508;85;21521;-66
2022/06/22 09:31:09;;;;;;;3.17;1.17;;;;;;;19.31;52.55;97953.62;1681262;85;21083;-66
2022/06/22 09:34:07;;;;;;;2.20;0.90;;;;;;;19.20;52.72;97951.75;1680597;85;21569;-66
2022/06/22 09:36:59;;;;;;;2.85;0.90;;;;;;;18.99;52.69;97961.11;1682679;85;21667;-66
2022/06/22 09:40:15;;;;;;;3.20;1.00;;;;;;;18.92;54.19;97958.42;1675091;85;21022;-66
2022/06/22 09:43:05;;;;;;;1.82;0.90;;;;;;;19.07;53.35;97960.45;1684237;85;21046;-65
2022/06/22 09:45:49;;;;;;;7.20;1.10;;;;;;;19.18;51.94;97956.95;1679910;85;21107;-65
2022/06/22 09:48:36;;;;;;;1.35;1.00;;;;;;;19.11;51.24;97958.42;1668663;85;26884;-67
2022/06/22 09:51:49;;;;;;;1.40;0.90;;;;;;;18.92;51.21;97966.17;1666135;85;21109;-66
2022/06/22 09:57:55;;;;;;;2.52;0.80;;;;;;;18.76;52.09;97955.59;1685929;84;21090;-65
2022/06/22 10:00:50;;;;;;;1.80;0.90;;;;;;;18.95;51.83;97956.96;1693369;84;21537;-67
2022/06/22 10:03:41;;;;;;;6.20;0.90;;;;;;;19.09;52.96;97960.80;1696192;84;21103;-65
2022/06/22 10:06:34;;;;;;;1.07;0.95;;;;;;;19.26;52.25;97962.45;1697040;83;21713;-67
2022/06/22 10:09:39;;;;;;;0.68;0.65;;;;;;;19.30;52.05;97968.17;1697636;84;21080;-65
2022/06/22 10:12:31;;;;;;;1.07;0.72;;;;;;;19.30;50.69;97972.95;1695921;83;21013;-66
2022/06/22 10:15:14;;;;;;;1.27;0.60;;;;;;;19.30;50.56;97961.79;1694108;84;21096;-67
2022/06/22 10:17:58;;;;;;;5.10;0.85;;;;;;;19.53;51.27;97964.51;1692629;83;21588;-67
2022/06/22 10:20:49;;;;;;;5.15;0.70;;;;;;;19.70;50.71;97964.09;1694337;84;21099;-66
2022/06/22 10:23:42;;;;;;;2.80;0.90;;;;;;;19.81;50.79;97968.91;1695441;84;21151;-65
2022/06/22 10:26:26;;;;;;;2.25;0.90;;;;;;;20.02;51.41;97969.81;1696114;84;21024;-66
2022/06/22 10:29:30;;;;;;;2.85;1.00;;;;;;;20.29;50.95;97967.63;1691525;84;21615;-67
2022/06/22 10:32:38;;;;;;;1.77;0.90;;;;;;;20.47;51.29;97966.52;1693133;84;21053;-66
2022/06/22 10:35:25;;;;;;;2.85;0.80;;;;;;;20.54;48.25;97962.81;1697981;83;21798;-65
2022/06/22 10:38:22;;;;;;;4.20;1.02;;;;;;;20.39;49.81;97974.84;1692811;84;21126;-66
2022/06/22 10:45:10;;;;;;;2.52;1.55;;;;;;;20.05;47.72;97995.55;1583061;90;21119;-67
2022/06/22 10:48:00;;;;;;;1.62;1.07;;;;;;;19.72;49.27;98010.52;1576664;90;22110;-66
2022/06/22 10:50:53;;;;;;;2.65;1.02;;;;;;;19.28;51.81;98033.99;1671599;84;21555;-67
2022/06/22 10:53:46;;;;;;;1.92;1.10;;;;;;;18.96;54.41;98038.09;1677776;84;21154;-67
2022/06/22 10:56:48;;;;;;;8.40;1.15;;;;;;;18.60;55.75;98030.03;1687811;84;21072;-65
2022/06/22 10:59:28;;;;;;;1.42;0.88;;;;;;;18.49;57.47;98032.30;1689459;84;21047;-66
2022/06/22 11:02:26;;;;;;;1.57;0.75;;;;;;;18.46;58.02;98033.13;1680476;84;21565;-66
2022/06/22 11:05:28;;;;;;;2.55;1.17;;;;;;;18.53;58.90;98026.70;1676607;83;21840;-66
2022/06/22 11:08:33;;;;;;;1.92;0.90;;;;;;;18.71;60.85;98024.38;1666062;84;21089;-64
2022/06/22 11:11:37;;;;;;;0.78;0.78;;;;;;;18.96;60.85;98022.74;1666353;83;21070;-66
2022/06/22 11:14:41;;;;;;;3.33;0.95;;;;;;;19.26;60.76;98020.45;1661288;84;21517;-66
2022/06/22 11:18:06;;;;;;;0.80;0.80;;;;;;;19.44;57.95;98027.25;1671333;83;21070;-67
2022/06/22 11:20:52;;;;;;;1.45;0.80;;;;;;;19.48;57.06;98020.23;1645276;86;21256;-67
2022/06/22 11:23:44;;;;;;;5.35;0.80;;;;;;;19.47;56.49;98022.81;1647642;86;21142;-67
2022/06/22 11:33:49;;;;;;;1.15;0.68;;;;;;;19.64;50.93;98032.78;1664319;84;21068;-66
2022/06/22 11:36:51;;;;;;;1.42;0.55;;;;;;;19.62;49.60;98031.81;1681568;84;22133;-65
2022/06/22 11:39:56;;;;;;;2.80;0.90;;;;;;;19.59;49.82;98021.48;1694105;83;21111;-65
2022/06/22 11:42:46;;;;;;;2.15;0.60;;;;;;;19.68;50.33;98023.17;1690891;84;21506;-67
2022/06/22 11:48:49;;;;;;;1.60;0.70;;;;;;;19.61;49.29;98036.41;1695250;84;21499;-67
2022/06/22 11:51:49;;;;;;;1.12;0.55;;;;;;;19.44;46.31;98037.02;1679703;84;21503;-65
2022/06/22 11:54:53;;;;;;;0.42;0.42;;;;;;;19.34;48.06;98042.89;1687913;84;21072;-66
2022/06/22 11:57:50;;;;;;;0.80;0.40;;;;;;;19.45;47.17;98040.59;1695048;83;21126;-66
2022/06/22 12:00:46;;;;;;;0.85;0.55;;;;;;;19.61;46.92;98037.81;1706057;83;21044;-66
2022/06/22 12:03:40;;;;;;;1.62;0.50;;;;;;;19.74;45.99;98041.64;1711450;83;21052;-65
2022/06/22 12:06:41;;;;;;;0.95;0.57;;;;;;;19.88;46.64;98044.86;1689909;83;22189;-67
2022/06/22 12:09:31;;;;;;;0.40;0.40;;;;;;;19.84;46.01;98042.70;1709493;83;21084;-67
2022/06/22 12:12:38;;;;;;;0.40;0.37;;;;;;;19.82;45.66;98040.33;1702172;83;21029;-67
2022/06/22 12:15:31;;;;;;;1.30;0.60;;;;;;;19.78;44.58;98041.59;1702853;83;21111;-66
2022/06/22 12:18:12;;;;;;;3.40;0.50;;;;;;;19.66;44.72;98035.36;1708803;83;21113;-68
2022/06/22 12:21:23;;;;;;;1.27;0.60;;;;;;;19.43;44.33;98044.42;1701670;83;21121;-64
2022/06/22 12:24:21;;;;;;;0.60;0.40;;;;;;;19.20;46.73;98052.23;1693931;83;21068;-67
2022/06/22 12:27:10;;;;;;;2.80;0.78;;;;;;;19.08;48.37;98049.34;1709640;83;21025;-66
2022/06/22 12:30:06;;;;;;;1.12;0.72;;;;;;;18.97;50.06;98049.43;1706673;83;21124;-67
2022/06/22 12:32:43;;;;;;;1.60;0.95;;;;;;;19.05;52.03;98052.95;1697978;83;21108;-64
2022/06/22 12:35:27;;;;;;;2.20;1.05;;;;;;;19.11;52.52;98059.52;1694034;83;22218;-65
2022/06/22 12:37:59;;;;;;;2.83;1.20;;;;;;;19.17;52.81;98057.85;1694522;84;21032;-66
2022/06/22 12:40:36;;;;;;;2.67;1.20;;;;;;;19.24;52.59;98063.97;1694964;84;21510;-66
2022/06/22 12:43:31;;;;;;;3.58;1.00;;;;;;;19.32;52.25;98057.09;1695827;83;21088;-65
2022/06/22 12:46:03;;;;;;;3.80;0.90;;;;;;;19.36;52.33;98050.88;1693624;83;21024;-66
2022/06/22 12:49:04;;;;;;;1.85;1.37;;;;;;;19.36;52.00;98059.25;1694985;83;21233;-66
2022/06/22 12:51:53;;;;;;;1.57;1.07;;;;;;;19.33;52.65;98065.64;1707448;83;21056;-64
2022/06/22 12:54:27;;;;;;;5.58;1.22;;;;;;;19.30;53.26;98066.48;1699897;83;21489;-65
2022/06/22 12:57:08;;;;;;;3.50;0.90;;;;;;;19.28;53.70;98064.11;1715536;83;21044;-66
2022/06/22 12:59:44;;;;;;;2.17;1.00;;;;;;;19.30;54.16;98062.30;1708412;83;21541;-65
2022/06/22 13:02:19;;;;;;;7.33;1.20;;;;;;;19.49;54.92;98053.11;1712328;83;21893;-66
2022/06/22 13:04:50;;;;;;;5.95;1.12;;;;;;;19.80;54.79;98053.95;1716329;81;21044;-66
2022/06/22 13:07:18;;;;;;;7.47;1.50;;;;;;;20.05;54.51;98054.23;1715510;83;21056;-65
2022/06/22 13:09:44;;;;;;;7.10;0.90;;;;;;;20.21;53.80;98060.42;1710301;83;21107;-67
2022/06/22 13:12:21;;;;;;;2.75;0.90;;;;;;;20.27;53.78;98060.12;1713597;83;21089;-66